Volgoneft-250 — UFQT — position and weather

sailwx.info

Track history (hours):
 
Tides and Currents Weather Stations Pressure Air Temp Water Temp Dewpoint Dewpoint Depression Visibility Wind Speed Wind Dir Waves Ship Positions

Volgoneft-250

Last reported at 2017-Oct-21 22:33 UTC. Time now 2017-Nov-21 14:01 UTC.
Position N 45°30' E 036°45'.
Warning: this ship's position is 30 days out of date.

Length 133 m; draft 2.6 m.

Type: Tanker. MMSI: 273340600.

Date/timePositionNaut miles runAvg speedWind from/ knotsBaromVisibWave heightAir tempDewpointWater temp
2017-Oct-21 22:33N 45°30' E 036°45'0 7.9
2017-Oct-21 22:30N 45°30' E 036°44'4 7.8
2017-Oct-21 22:00N 45°27' E 036°42'4 8.0
2017-Oct-21 21:30N 45°23' E 036°41'3 6.5
2017-Oct-21 21:00N 45°20' E 036°38'4 8.2
2017-Oct-21 20:30N 45°19' E 036°32'4 7.8
2017-Oct-21 20:00N 45°16' E 036°29'3 4.7
2017-Oct-21 19:28N 45°14' E 036°31'0 0.1
2017-Oct-21 16:18N 45°13' E 036°31'0 0.0
2017-Oct-21 15:09N 45°14' E 036°31'0 0.1
2017-Oct-21 14:52N 45°13' E 036°31'0 0.9
2017-Oct-21 14:30N 45°13' E 036°31'2 0.2
2017-Oct-21 02:02N 45°12' E 036°29'0 7.0
2017-Oct-21 02:00N 45°12' E 036°29'3 6.7
2017-Oct-21 01:30N 45°15' E 036°28'3 6.2
2017-Oct-21 01:00N 45°18' E 036°29'3 6.0
2017-Oct-21 00:30N 45°19' E 036°33'2 5.0
2017-Oct-21 00:00N 45°20' E 036°37'3 5.3
2017-Oct-20 23:30N 45°21' E 036°40'2 4.6
2017-Oct-20 23:00N 45°23' E 036°41'0 0.8
2017-Oct-20 22:28N 45°24' E 036°42'0 0.0
2017-Oct-20 22:00N 45°24' E 036°42'0 0.0
2017-Oct-20 21:28N 45°24' E 036°42'0 0.0
2017-Oct-20 20:59N 45°24' E 036°42'0 0.0
2017-Oct-20 20:26N 45°24' E 036°42'0 0.1
2017-Oct-20 20:00N 45°23' E 036°42'0 0.1
2017-Oct-20 19:25N 45°23' E 036°42'0 0.0
2017-Oct-20 18:48N 45°23' E 036°42'0 0.0
2017-Oct-20 18:29N 45°23' E 036°42'0 0.0
2017-Oct-20 17:59N 45°23' E 036°42'0 0.0
2017-Oct-20 17:29N 45°23' E 036°42'0 0.0
2017-Oct-20 16:53N 45°23' E 036°42'0 0.0
2017-Oct-20 16:28N 45°23' E 036°42'0 0.0
2017-Oct-20 15:54N 45°23' E 036°42'0 0.0
2017-Oct-20 15:29N 45°23' E 036°42'0 0.0
2017-Oct-20 14:59N 45°23' E 036°42'0 0.0
2017-Oct-20 14:26N 45°23' E 036°42'0 0.0
2017-Oct-20 13:30N 45°23' E 036°42'0 0.0
2017-Oct-20 12:58N 45°23' E 036°42'0 0.1
2017-Oct-20 12:27N 45°23' E 036°42'0 0.1
2017-Oct-20 11:57N 45°24' E 036°42'0 0.0
2017-Oct-20 11:23N 45°24' E 036°42'0 0.0
2017-Oct-20 10:58N 45°24' E 036°42'0 0.0
2017-Oct-20 10:30N 45°24' E 036°42'0 0.0
2017-Oct-20 09:54N 45°24' E 036°42'0 0.1
2017-Oct-20 09:28N 45°24' E 036°42'0 0.0
2017-Oct-20 08:58N 45°24' E 036°42'0 0.0
2017-Oct-20 08:30N 45°24' E 036°42'0 0.0
2017-Oct-20 07:58N 45°24' E 036°42'0 0.0
2017-Oct-20 07:21N 45°24' E 036°42'0 0.0
2017-Oct-20 07:00N 45°24' E 036°42'0 0.0
2017-Oct-20 06:18N 45°24' E 036°42'0 0.0
2017-Oct-20 05:58N 45°24' E 036°42'0 0.0
2017-Oct-20 05:27N 45°24' E 036°42'0 0.0
2017-Oct-20 04:57N 45°24' E 036°42'0 0.0
2017-Oct-20 04:28N 45°24' E 036°42'0 0.0
2017-Oct-20 03:59N 45°24' E 036°42'0 0.0
2017-Oct-20 03:27N 45°24' E 036°42'0 0.0
2017-Oct-20 02:59N 45°24' E 036°42'0 0.0
2017-Oct-20 02:29N 45°24' E 036°42'0 0.0
2017-Oct-20 01:59N 45°24' E 036°42'0 0.1
2017-Oct-20 01:30N 45°24' E 036°42'0 0.0
2017-Oct-20 00:59N 45°24' E 036°42'0 0.0
2017-Oct-20 00:27N 45°24' E 036°42'0 0.0
2017-Oct-20 00:00N 45°24' E 036°42'0 0.0
2017-Oct-19 23:28N 45°24' E 036°42'0 0.0
2017-Oct-19 22:55N 45°24' E 036°42'0 0.0
2017-Oct-19 22:23N 45°24' E 036°42'0 0.0
2017-Oct-19 22:00N 45°24' E 036°42'0 0.0
2017-Oct-19 21:29N 45°24' E 036°42'0 0.0
2017-Oct-19 20:59N 45°24' E 036°42'0 0.0
2017-Oct-19 20:26N 45°24' E 036°42'0 0.0
2017-Oct-19 19:54N 45°24' E 036°42'0 0.0
2017-Oct-19 19:28N 45°24' E 036°42'0 0.0
2017-Oct-19 18:56N 45°24' E 036°42'0 0.0
2017-Oct-19 18:23N 45°24' E 036°42'0 0.0
2017-Oct-19 17:59N 45°24' E 036°42'0 0.0
2017-Oct-19 17:29N 45°24' E 036°42'0 0.0
2017-Oct-19 16:58N 45°24' E 036°42'0 0.0
2017-Oct-19 16:30N 45°24' E 036°42'0 0.0
2017-Oct-19 15:54N 45°24' E 036°42'0 0.0
2017-Oct-19 15:27N 45°24' E 036°42'0 0.0
2017-Oct-19 14:58N 45°24' E 036°42'0 0.0
2017-Oct-19 14:28N 45°24' E 036°42'0 0.0
2017-Oct-19 13:58N 45°24' E 036°42'0 0.0
2017-Oct-19 13:29N 45°24' E 036°42'0 0.0
2017-Oct-19 12:59N 45°24' E 036°42'0 0.0
2017-Oct-19 12:28N 45°24' E 036°42'0 0.0
2017-Oct-19 11:58N 45°24' E 036°42'0 0.0
2017-Oct-19 11:29N 45°24' E 036°42'0 0.0
2017-Oct-19 10:58N 45°24' E 036°42'0 0.0
2017-Oct-19 10:25N 45°24' E 036°42'0 0.0
2017-Oct-19 09:54N 45°24' E 036°42'0 0.0
2017-Oct-19 09:27N 45°24' E 036°42'0 0.0
2017-Oct-19 08:58N 45°24' E 036°42'0 0.0
2017-Oct-19 08:26N 45°24' E 036°42'0 0.0
2017-Oct-19 07:59N 45°24' E 036°42'0 0.0
2017-Oct-19 07:29N 45°24' E 036°42'0 0.0
2017-Oct-19 07:00N 45°24' E 036°42'0 0.0
2017-Oct-19 06:29N 45°24' E 036°42'0 0.0
2017-Oct-19 05:54N 45°24' E 036°42'0 0.0
2017-Oct-19 05:23N 45°24' E 036°42'0 0.0
2017-Oct-19 04:57N 45°24' E 036°42'0 0.0
2017-Oct-19 04:28N 45°24' E 036°42'0 0.0
2017-Oct-19 03:59N 45°24' E 036°42'0 0.1
2017-Oct-19 03:29N 45°24' E 036°42'0 0.0
2017-Oct-19 02:58N 45°24' E 036°42'0 0.0
2017-Oct-19 02:25N 45°24' E 036°42'0 0.0
2017-Oct-19 02:00N 45°24' E 036°42'0 0.0
2017-Oct-19 01:29N 45°24' E 036°42'0 0.0
2017-Oct-19 01:00N 45°24' E 036°42'0 0.0
2017-Oct-19 00:30N 45°24' E 036°42'0 0.0
2017-Oct-18 23:57N 45°24' E 036°42'0 0.0
2017-Oct-18 23:30N 45°24' E 036°42'0 0.0
2017-Oct-18 23:00N 45°24' E 036°42'0 0.0
2017-Oct-18 22:28N 45°24' E 036°42'0 0.0
2017-Oct-18 22:00N 45°24' E 036°42'0 0.0
2017-Oct-18 21:30N 45°24' E 036°42'0 0.0
2017-Oct-18 20:58N 45°24' E 036°42'0 0.0
2017-Oct-18 20:28N 45°24' E 036°42'0 0.0
2017-Oct-18 19:57N 45°24' E 036°42'0 0.0
2017-Oct-18 19:29N 45°24' E 036°42'0 0.0
2017-Oct-18 18:57N 45°24' E 036°42'0 0.0
2017-Oct-18 18:28N 45°24' E 036°42'0 0.0
2017-Oct-18 17:59N 45°24' E 036°42'0 0.0
2017-Oct-18 17:30N 45°24' E 036°42'0 0.0
2017-Oct-18 17:00N 45°24' E 036°42'0 0.1
2017-Oct-18 16:29N 45°24' E 036°42'0 0.0
2017-Oct-18 15:59N 45°24' E 036°42'0 0.0
2017-Oct-18 15:29N 45°24' E 036°42'0 0.0
2017-Oct-18 14:58N 45°24' E 036°42'0 0.0
2017-Oct-18 13:58N 45°24' E 036°42'0 0.2
2017-Oct-18 13:29N 45°23' E 036°42'0 0.1
2017-Oct-18 13:00N 45°23' E 036°42'0 0.0
2017-Oct-18 12:30N 45°23' E 036°42'0 0.0
2017-Oct-18 11:56N 45°23' E 036°42'0 0.0
2017-Oct-18 11:30N 45°23' E 036°42'0 0.0
2017-Oct-18 10:57N 45°23' E 036°42'0 0.0
2017-Oct-18 10:28N 45°23' E 036°42'0 0.0
2017-Oct-18 09:52N 45°23' E 036°42'0 0.0
2017-Oct-18 09:27N 45°23' E 036°42'0 0.0
2017-Oct-18 08:58N 45°23' E 036°42'0 0.0
2017-Oct-18 08:23N 45°23' E 036°42'0 0.0
2017-Oct-18 07:53N 45°23' E 036°42'0 0.0
2017-Oct-18 07:23N 45°23' E 036°42'0 0.0
2017-Oct-18 06:58N 45°23' E 036°42'0 0.0
2017-Oct-18 06:27N 45°23' E 036°42'0 0.0
2017-Oct-18 05:58N 45°23' E 036°42'0 0.0
2017-Oct-18 05:24N 45°23' E 036°42'0 0.0
2017-Oct-18 04:58N 45°23' E 036°42'0 0.0
2017-Oct-18 04:29N 45°23' E 036°42'0 0.0
2017-Oct-18 03:51N 45°23' E 036°42'0 0.0
2017-Oct-18 03:24N 45°23' E 036°42'0 0.0
2017-Oct-18 03:00N 45°23' E 036°42'0 0.0
2017-Oct-18 02:28N 45°23' E 036°42'0 0.0
2017-Oct-18 01:55N 45°23' E 036°42'0 0.0
2017-Oct-18 01:30N 45°23' E 036°42'0 0.0
2017-Oct-18 00:59N 45°23' E 036°42'0 0.0
2017-Oct-18 00:25N 45°23' E 036°42'0 0.0
2017-Oct-17 23:53N 45°23' E 036°42'0 0.0
2017-Oct-17 23:30N 45°23' E 036°42'0 0.0
2017-Oct-17 22:57N 45°23' E 036°42'0 0.0
2017-Oct-17 22:25N 45°23' E 036°42'0 0.0
2017-Oct-17 22:00N 45°23' E 036°42'0 0.0
2017-Oct-17 21:30N 45°23' E 036°42'0 0.0
2017-Oct-17 20:58N 45°23' E 036°42'0 0.0
2017-Oct-17 20:30N 45°23' E 036°42'0 0.0
2017-Oct-17 19:55N 45°23' E 036°42'0 0.0
2017-Oct-17 19:29N 45°23' E 036°42'0 0.0
2017-Oct-17 18:59N 45°23' E 036°42'0 0.0
2017-Oct-17 18:27N 45°23' E 036°42'0 0.0
2017-Oct-17 17:56N 45°23' E 036°42'0 0.0
2017-Oct-17 17:27N 45°23' E 036°42'0 0.0
2017-Oct-17 16:57N 45°23' E 036°42'0 0.0
2017-Oct-17 16:28N 45°23' E 036°42'0 0.0
2017-Oct-17 16:00N 45°23' E 036°42'0 0.0
2017-Oct-17 15:30N 45°23' E 036°42'0 0.0
2017-Oct-17 15:00N 45°24' E 036°42'0 0.0
2017-Oct-17 14:30N 45°24' E 036°42'0 0.0
2017-Oct-17 13:58N 45°23' E 036°42'0 0.0
2017-Oct-17 13:23N 45°23' E 036°42'0 0.0
2017-Oct-17 12:59N 45°23' E 036°42'0 0.0
2017-Oct-17 12:28N 45°23' E 036°42'0 0.0
2017-Oct-17 11:58N 45°23' E 036°42'0 0.0
2017-Oct-17 11:28N 45°23' E 036°42'0 0.0
2017-Oct-17 10:57N 45°23' E 036°42'0 0.0
2017-Oct-17 10:30N 45°23' E 036°42'0 0.0
2017-Oct-17 09:56N 45°23' E 036°42'0 0.0
2017-Oct-17 09:25N 45°23' E 036°42'0 0.0
2017-Oct-17 08:54N 45°23' E 036°42'0 0.0
2017-Oct-17 08:28N 45°23' E 036°42'0 0.0
2017-Oct-17 07:58N 45°23' E 036°42'0 0.0
2017-Oct-17 07:26N 45°23' E 036°42'0 0.0
2017-Oct-17 06:59N 45°23' E 036°42'0 0.0
2017-Oct-17 06:29N 45°23' E 036°42'0 0.0
2017-Oct-17 05:57N 45°23' E 036°42'0 0.0
2017-Oct-17 05:25N 45°23' E 036°42'0 0.0
2017-Oct-17 05:00N 45°23' E 036°42'0 0.0
2017-Oct-17 04:29N 45°23' E 036°42'0 0.0
2017-Oct-17 03:57N 45°23' E 036°42'0 0.0
2017-Oct-17 03:15N 45°23' E 036°42'0 0.0
2017-Oct-17 03:00N 45°23' E 036°42'0 0.0
2017-Oct-17 02:27N 45°23' E 036°42'0 0.0
2017-Oct-17 01:56N 45°23' E 036°42'0 0.1
2017-Oct-17 01:30N 45°23' E 036°42'0 0.0
2017-Oct-17 00:57N 45°23' E 036°42'0 0.0
2017-Oct-17 00:28N 45°23' E 036°42'0 0.0
2017-Oct-17 00:00N 45°23' E 036°42'0 0.0
2017-Oct-16 23:30N 45°23' E 036°42'0 0.0
2017-Oct-16 22:59N 45°23' E 036°42'0 0.0
2017-Oct-16 22:27N 45°23' E 036°42'0 0.0
2017-Oct-16 21:55N 45°23' E 036°42'0 0.0
2017-Oct-16 21:29N 45°23' E 036°42'0 0.0
2017-Oct-16 20:59N 45°23' E 036°42'0 0.0
2017-Oct-16 20:28N 45°23' E 036°42'0 0.0
2017-Oct-16 20:00N 45°23' E 036°42'0 0.0
2017-Oct-16 19:29N 45°23' E 036°42'0 0.0
2017-Oct-16 18:58N 45°23' E 036°42'0 0.0
2017-Oct-16 18:27N 45°23' E 036°42'0 0.0
2017-Oct-16 18:00N 45°23' E 036°42'0 0.0
2017-Oct-16 17:30N 45°23' E 036°42'0 0.0
2017-Oct-16 16:59N 45°23' E 036°42'0 0.0
2017-Oct-16 16:26N 45°23' E 036°42'0 0.0
2017-Oct-16 15:59N 45°23' E 036°42'0 0.0
2017-Oct-16 15:30N 45°23' E 036°42'0 0.0
2017-Oct-16 14:58N 45°23' E 036°42'0 0.0
2017-Oct-16 13:59N 45°23' E 036°42'0 0.0
2017-Oct-16 13:30N 45°23' E 036°42'0 0.0
2017-Oct-16 12:58N 45°23' E 036°42'0 0.0
2017-Oct-16 12:27N 45°23' E 036°42'0 0.0
2017-Oct-16 11:55N 45°23' E 036°42'0 0.0
2017-Oct-16 11:27N 45°23' E 036°42'0 0.0
2017-Oct-16 10:55N 45°23' E 036°42'0 0.0
2017-Oct-16 10:29N 45°23' E 036°42'0 0.0
2017-Oct-16 10:00N 45°23' E 036°42'0 0.0
2017-Oct-16 09:30N 45°23' E 036°42'0 0.0
2017-Oct-16 09:00N 45°23' E 036°42'0 0.0
2017-Oct-16 08:28N 45°23' E 036°42'0 0.0
2017-Oct-16 07:58N 45°23' E 036°42'0 0.0
2017-Oct-16 07:29N 45°23' E 036°42'0 0.0
2017-Oct-16 06:58N 45°23' E 036°42'0 0.0
2017-Oct-16 06:29N 45°23' E 036°42'0 0.0
2017-Oct-16 05:53N 45°23' E 036°42'0 0.0
2017-Oct-16 05:29N 45°23' E 036°42'0 0.0
2017-Oct-16 04:58N 45°23' E 036°42'0 0.0
2017-Oct-16 04:28N 45°23' E 036°42'0 0.0
2017-Oct-16 03:59N 45°23' E 036°42'0 0.0
2017-Oct-16 03:29N 45°23' E 036°42'0 0.0
2017-Oct-16 02:59N 45°23' E 036°42'0 0.0
2017-Oct-16 02:27N 45°23' E 036°42'0 0.0
2017-Oct-16 01:53N 45°23' E 036°42'0 0.0
2017-Oct-16 01:30N 45°23' E 036°42'0 0.0
2017-Oct-16 01:00N 45°23' E 036°42'0 0.0
2017-Oct-16 00:28N 45°23' E 036°42'0 0.0
2017-Oct-16 00:00N 45°23' E 036°42'0 0.0
2017-Oct-15 23:28N 45°23' E 036°42'0 0.0
2017-Oct-15 22:58N 45°23' E 036°42'0 0.0
2017-Oct-15 22:26N 45°23' E 036°42'0 0.1
2017-Oct-15 22:00N 45°23' E 036°42'0 0.0
2017-Oct-15 21:29N 45°24' E 036°42'0 0.0
2017-Oct-15 20:58N 45°24' E 036°42'0 0.0
2017-Oct-15 20:25N 45°24' E 036°42'0 0.0
2017-Oct-15 19:54N 45°24' E 036°42'0 0.0
2017-Oct-15 19:28N 45°24' E 036°42'0 0.0
2017-Oct-15 18:59N 45°24' E 036°42'0 0.0
2017-Oct-15 18:25N 45°24' E 036°42'0 0.0
2017-Oct-15 17:53N 45°24' E 036°42'0 0.0
2017-Oct-15 17:27N 45°24' E 036°42'0 0.0
2017-Oct-15 16:58N 45°24' E 036°42'0 0.0
2017-Oct-15 16:20N 45°24' E 036°42'0 0.0
2017-Oct-15 15:57N 45°24' E 036°42'0 0.0
2017-Oct-15 15:28N 45°24' E 036°42'0 0.0
2017-Oct-15 14:55N 45°24' E 036°42'0 0.0
2017-Oct-15 14:00N 45°24' E 036°42'0 0.0
2017-Oct-15 13:30N 45°24' E 036°42'0 0.1
2017-Oct-15 12:58N 45°24' E 036°42'0 0.0
2017-Oct-15 12:23N 45°24' E 036°42'0 0.0
2017-Oct-15 11:54N 45°23' E 036°42'0 0.1
2017-Oct-15 11:30N 45°23' E 036°42'0 0.0
2017-Oct-15 10:58N 45°23' E 036°42'0 0.0
2017-Oct-15 10:29N 45°23' E 036°42'0 0.0
2017-Oct-15 09:59N 45°23' E 036°42'0 0.0
2017-Oct-15 09:28N 45°23' E 036°42'0 0.0
2017-Oct-15 08:56N 45°23' E 036°42'0 0.0
2017-Oct-15 08:30N 45°23' E 036°42'0 0.0
2017-Oct-15 08:00N 45°23' E 036°42'0 0.0
2017-Oct-15 07:27N 45°23' E 036°42'0 0.0
2017-Oct-15 06:57N 45°23' E 036°42'0 0.0
2017-Oct-15 06:28N 45°23' E 036°42'0 0.0
2017-Oct-15 06:00N 45°23' E 036°42'0 0.0
2017-Oct-15 05:28N 45°23' E 036°42'0 0.0
2017-Oct-15 04:58N 45°23' E 036°42'0 0.0
2017-Oct-15 04:25N 45°23' E 036°42'0 0.0
2017-Oct-15 04:00N 45°23' E 036°42'0 0.0
2017-Oct-15 03:30N 45°23' E 036°42'0 0.0
2017-Oct-15 02:55N 45°23' E 036°42'0 0.0
2017-Oct-15 02:26N 45°23' E 036°42'0 0.0
2017-Oct-15 01:53N 45°23' E 036°42'0 0.0
2017-Oct-15 01:29N 45°23' E 036°42'0 0.0
2017-Oct-15 00:58N 45°23' E 036°42'0 0.0
2017-Oct-15 00:26N 45°23' E 036°42'0 0.0
2017-Oct-14 23:54N 45°23' E 036°42'0 0.0
2017-Oct-14 23:28N 45°23' E 036°42'0 0.0
2017-Oct-14 22:55N 45°23' E 036°42'0 0.0
2017-Oct-14 22:24N 45°23' E 036°42'0 0.0
2017-Oct-14 21:59N 45°23' E 036°42'0 0.0
2017-Oct-14 21:28N 45°23' E 036°42'0 0.0
2017-Oct-14 20:58N 45°23' E 036°42'0 0.0
2017-Oct-14 20:26N 45°23' E 036°42'0 0.0
2017-Oct-14 19:59N 45°23' E 036°42'0 0.0
2017-Oct-14 19:28N 45°23' E 036°42'0 0.0
2017-Oct-14 19:00N 45°23' E 036°42'0 0.0
2017-Oct-14 18:30N 45°23' E 036°42'0 0.0
2017-Oct-14 17:56N 45°23' E 036°42'0 0.0
2017-Oct-14 17:29N 45°23' E 036°42'0 0.0
2017-Oct-14 16:56N 45°23' E 036°42'0 0.0
2017-Oct-14 16:25N 45°23' E 036°42'0 0.0
2017-Oct-14 15:53N 45°23' E 036°42'0 0.0
2017-Oct-14 15:28N 45°23' E 036°42'0 0.0
2017-Oct-14 14:59N 45°23' E 036°42'0 0.0
2017-Oct-14 14:28N 45°23' E 036°42'0 0.0
2017-Oct-14 14:00N 45°23' E 036°42'0 0.0
2017-Oct-14 13:29N 45°23' E 036°42'0 0.0
2017-Oct-14 12:56N 45°23' E 036°42'0 0.0
2017-Oct-14 12:27N 45°23' E 036°42'0 0.0
2017-Oct-14 11:57N 45°23' E 036°42'0 0.0
2017-Oct-14 11:30N 45°23' E 036°42'0 0.0
2017-Oct-14 10:55N 45°23' E 036°42'0 0.0
2017-Oct-14 10:27N 45°23' E 036°42'0 0.0
2017-Oct-14 09:53N 45°23' E 036°42'0 0.0
2017-Oct-14 09:29N 45°23' E 036°42'0 0.0
2017-Oct-14 08:58N 45°23' E 036°42'0 0.0
2017-Oct-14 08:26N 45°23' E 036°42'0 0.0
2017-Oct-14 08:00N 45°23' E 036°42'0 0.0
2017-Oct-14 07:23N 45°23' E 036°42'0 0.0
2017-Oct-14 07:00N 45°23' E 036°42'0 0.0
2017-Oct-14 06:30N 45°23' E 036°42'0 0.0
2017-Oct-14 06:00N 45°23' E 036°42'0 0.0
2017-Oct-14 05:30N 45°23' E 036°42'0 0.0
2017-Oct-14 04:55N 45°23' E 036°42'0 0.0
2017-Oct-14 04:24N 45°23' E 036°42'0 0.0
2017-Oct-14 03:54N 45°23' E 036°42'0 0.0
2017-Oct-14 03:28N 45°23' E 036°42'0 0.0
2017-Oct-14 02:58N 45°23' E 036°42'0 0.0
2017-Oct-14 02:23N 45°23' E 036°42'0 0.0
2017-Oct-14 01:58N 45°23' E 036°42'0 0.0
2017-Oct-14 01:30N 45°23' E 036°42'0 0.0
2017-Oct-14 00:58N 45°23' E 036°42'0 0.0
2017-Oct-14 00:30N 45°23' E 036°42'0 0.0
2017-Oct-13 23:59N 45°23' E 036°42'0 0.0
2017-Oct-13 23:28N 45°23' E 036°42'0 0.1
2017-Oct-13 22:57N 45°23' E 036°42'0 0.0
2017-Oct-13 22:24N 45°23' E 036°42'0 0.2
2017-Oct-13 21:53N 45°24' E 036°42'0 0.0
2017-Oct-13 21:28N 45°24' E 036°42'0 0.0
2017-Oct-13 20:59N 45°24' E 036°42'0 0.0
2017-Oct-13 20:29N 45°24' E 036°42'0 0.0
2017-Oct-13 19:54N 45°24' E 036°42'0 0.0
2017-Oct-13 19:28N 45°24' E 036°42'0 0.0
2017-Oct-13 19:00N 45°24' E 036°42'0 0.0
2017-Oct-13 18:30N 45°24' E 036°42'0 0.0
2017-Oct-13 17:59N 45°24' E 036°42'0 0.0
2017-Oct-13 17:28N 45°24' E 036°42'0 0.0
2017-Oct-13 16:56N 45°24' E 036°42'0 0.0
2017-Oct-13 16:29N 45°24' E 036°42'0 0.0
2017-Oct-13 15:54N 45°24' E 036°42'0 0.0
2017-Oct-13 15:28N 45°24' E 036°42'0 0.0
2017-Oct-13 14:56N 45°24' E 036°42'0 0.0
2017-Oct-13 14:23N 45°24' E 036°42'0 0.0
2017-Oct-13 13:57N 45°24' E 036°42'0 0.0
2017-Oct-13 13:29N 45°24' E 036°42'0 0.0
2017-Oct-13 12:59N 45°24' E 036°42'0 0.0
2017-Oct-13 12:25N 45°24' E 036°42'0 0.0
2017-Oct-13 11:54N 45°24' E 036°42'0 0.0
2017-Oct-13 11:28N 45°24' E 036°42'0 0.0
2017-Oct-13 10:59N 45°24' E 036°42'0 0.0
2017-Oct-13 10:29N 45°24' E 036°42'0 0.0
2017-Oct-13 09:54N 45°24' E 036°42'0 0.0
2017-Oct-13 09:27N 45°24' E 036°42'0 0.0
2017-Oct-13 08:56N 45°24' E 036°42'0 0.0
2017-Oct-13 08:26N 45°24' E 036°42'0 0.0
2017-Oct-13 07:59N 45°24' E 036°42'0 0.1
2017-Oct-13 07:29N 45°24' E 036°42'0 0.0
2017-Oct-13 07:00N 45°24' E 036°42'0 0.0
2017-Oct-13 06:25N 45°24' E 036°42'0 0.0
2017-Oct-13 05:53N 45°24' E 036°42'0 0.0
2017-Oct-13 05:29N 45°24' E 036°42'0 0.0
2017-Oct-13 05:00N 45°24' E 036°42'0 0.0
2017-Oct-13 04:30N 45°24' E 036°42'0 0.0
2017-Oct-13 04:00N 45°24' E 036°42'0 0.0
2017-Oct-13 03:24N 45°24' E 036°42'0 0.0
2017-Oct-13 02:58N 45°24' E 036°42'0 0.0
2017-Oct-13 02:29N 45°24' E 036°42'0 0.0
2017-Oct-13 01:54N 45°24' E 036°42'0 0.0
2017-Oct-13 01:28N 45°24' E 036°42'0 0.0
2017-Oct-13 00:58N 45°24' E 036°42'0 0.0
2017-Oct-13 00:24N 45°24' E 036°42'0 0.0
2017-Oct-13 00:00N 45°24' E 036°42'0 0.0
2017-Oct-12 23:28N 45°24' E 036°42'0 0.0
2017-Oct-12 22:58N 45°24' E 036°42'0 0.0
2017-Oct-12 22:25N 45°24' E 036°42'0 0.0
2017-Oct-12 21:53N 45°24' E 036°42'0 0.0
2017-Oct-12 21:28N 45°24' E 036°42'0 0.0
2017-Oct-12 20:59N 45°24' E 036°42'0 0.0
2017-Oct-12 20:26N 45°24' E 036°42'0 0.0
2017-Oct-12 19:59N 45°24' E 036°42'0 0.0
2017-Oct-12 19:27N 45°24' E 036°42'0 0.0
2017-Oct-12 19:00N 45°24' E 036°42'0 0.0
2017-Oct-12 18:27N 45°24' E 036°42'0 0.0
2017-Oct-12 17:53N 45°24' E 036°42'0 0.0
2017-Oct-12 17:30N 45°24' E 036°42'0 0.0
2017-Oct-12 16:57N 45°24' E 036°42'0 0.0
2017-Oct-12 16:26N 45°24' E 036°42'0 0.0
2017-Oct-12 16:00N 45°24' E 036°42'0 0.0
2017-Oct-12 15:30N 45°24' E 036°42'0 0.0
2017-Oct-12 14:56N 45°24' E 036°42'0 0.0
2017-Oct-12 14:30N 45°24' E 036°42'0 0.0
2017-Oct-12 13:59N 45°24' E 036°42'0 0.0
2017-Oct-12 13:27N 45°24' E 036°42'0 0.0
2017-Oct-12 13:00N 45°24' E 036°42'0 0.0
2017-Oct-12 12:29N 45°24' E 036°42'0 0.0
2017-Oct-12 11:54N 45°24' E 036°42'0 0.1
2017-Oct-12 11:30N 45°24' E 036°42'0 0.0
2017-Oct-12 10:56N 45°24' E 036°42'0 0.0
2017-Oct-12 10:26N 45°24' E 036°42'0 0.0
2017-Oct-12 10:00N 45°24' E 036°42'0 0.0
2017-Oct-12 09:30N 45°24' E 036°42'0 0.0
2017-Oct-12 08:58N 45°24' E 036°42'0 0.0
2017-Oct-12 08:30N 45°24' E 036°42'0 0.0
2017-Oct-12 08:00N 45°24' E 036°42'0 0.0
2017-Oct-12 07:29N 45°24' E 036°42'0 0.0
2017-Oct-12 06:59N 45°24' E 036°42'0 0.0
2017-Oct-12 06:29N 45°24' E 036°42'0 0.0
2017-Oct-12 05:54N 45°24' E 036°42'0 0.0
2017-Oct-12 05:28N 45°24' E 036°42'0 0.0
2017-Oct-12 04:58N 45°24' E 036°42'0 0.0
2017-Oct-12 04:28N 45°24' E 036°42'0 0.0
2017-Oct-12 03:53N 45°23' E 036°42'0 0.0
2017-Oct-12 03:30N 45°23' E 036°42'0 0.0
2017-Oct-12 02:50N 45°23' E 036°42'0 0.0
2017-Oct-12 02:30N 45°23' E 036°42'0 0.0
2017-Oct-12 01:58N 45°23' E 036°42'0 0.0
2017-Oct-12 01:30N 45°23' E 036°42'0 0.0
2017-Oct-12 00:58N 45°23' E 036°42'0 0.0
2017-Oct-12 00:26N 45°23' E 036°42'0 0.0
2017-Oct-11 23:59N 45°24' E 036°42'0 0.0
2017-Oct-11 23:27N 45°23' E 036°42'0 0.0
2017-Oct-11 22:45N 45°23' E 036°42'  
Track history (hours):
 
Tides and Currents Weather Stations Pressure Air Temp Water Temp Dewpoint Dewpoint Depression Visibility Wind Speed Wind Dir Waves Ship Positions

Volgoneft-250

Last reported at 2017-Oct-21 22:33 UTC. Time now 2017-Nov-21 14:01 UTC.
Position N 45°30' E 036°45'.
Warning: this ship's position is 30 days out of date.

Length 133 m; draft 2.6 m.

Type: Tanker. MMSI: 273340600.

Date/timePositionNaut miles runAvg speedWind from/ knotsBaromVisibWave heightAir tempDewpointWater temp
2017-Oct-21 22:33N 45°30' E 036°45'0 7.9
2017-Oct-21 22:30N 45°30' E 036°44'4 7.8
2017-Oct-21 22:00N 45°27' E 036°42'4 8.0
2017-Oct-21 21:30N 45°23' E 036°41'3 6.5
2017-Oct-21 21:00N 45°20' E 036°38'4 8.2
2017-Oct-21 20:30N 45°19' E 036°32'4 7.8
2017-Oct-21 20:00N 45°16' E 036°29'3 4.7
2017-Oct-21 19:28N 45°14' E 036°31'0 0.1
2017-Oct-21 16:18N 45°13' E 036°31'0 0.0
2017-Oct-21 15:09N 45°14' E 036°31'0 0.1
2017-Oct-21 14:52N 45°13' E 036°31'0 0.9
2017-Oct-21 14:30N 45°13' E 036°31'2 0.2
2017-Oct-21 02:02N 45°12' E 036°29'0 7.0
2017-Oct-21 02:00N 45°12' E 036°29'3 6.7
2017-Oct-21 01:30N 45°15' E 036°28'3 6.2
2017-Oct-21 01:00N 45°18' E 036°29'3 6.0
2017-Oct-21 00:30N 45°19' E 036°33'2 5.0
2017-Oct-21 00:00N 45°20' E 036°37'3 5.3
2017-Oct-20 23:30N 45°21' E 036°40'2 4.6
2017-Oct-20 23:00N 45°23' E 036°41'0 0.8
2017-Oct-20 22:28N 45°24' E 036°42'0 0.0
2017-Oct-20 22:00N 45°24' E 036°42'0 0.0
2017-Oct-20 21:28N 45°24' E 036°42'0 0.0
2017-Oct-20 20:59N 45°24' E 036°42'0 0.0
2017-Oct-20 20:26N 45°24' E 036°42'0 0.1
2017-Oct-20 20:00N 45°23' E 036°42'0 0.1
2017-Oct-20 19:25N 45°23' E 036°42'0 0.0
2017-Oct-20 18:48N 45°23' E 036°42'0 0.0
2017-Oct-20 18:29N 45°23' E 036°42'0 0.0
2017-Oct-20 17:59N 45°23' E 036°42'0 0.0
2017-Oct-20 17:29N 45°23' E 036°42'0 0.0
2017-Oct-20 16:53N 45°23' E 036°42'0 0.0
2017-Oct-20 16:28N 45°23' E 036°42'0 0.0
2017-Oct-20 15:54N 45°23' E 036°42'0 0.0
2017-Oct-20 15:29N 45°23' E 036°42'0 0.0
2017-Oct-20 14:59N 45°23' E 036°42'0 0.0
2017-Oct-20 14:26N 45°23' E 036°42'0 0.0
2017-Oct-20 13:30N 45°23' E 036°42'0 0.0
2017-Oct-20 12:58N 45°23' E 036°42'0 0.1
2017-Oct-20 12:27N 45°23' E 036°42'0 0.1
2017-Oct-20 11:57N 45°24' E 036°42'0 0.0
2017-Oct-20 11:23N 45°24' E 036°42'0 0.0
2017-Oct-20 10:58N 45°24' E 036°42'0 0.0
2017-Oct-20 10:30N 45°24' E 036°42'0 0.0
2017-Oct-20 09:54N 45°24' E 036°42'0 0.1
2017-Oct-20 09:28N 45°24' E 036°42'0 0.0
2017-Oct-20 08:58N 45°24' E 036°42'0 0.0
2017-Oct-20 08:30N 45°24' E 036°42'0 0.0
2017-Oct-20 07:58N 45°24' E 036°42'0 0.0
2017-Oct-20 07:21N 45°24' E 036°42'0 0.0
2017-Oct-20 07:00N 45°24' E 036°42'0 0.0
2017-Oct-20 06:18N 45°24' E 036°42'0 0.0
2017-Oct-20 05:58N 45°24' E 036°42'0 0.0
2017-Oct-20 05:27N 45°24' E 036°42'0 0.0
2017-Oct-20 04:57N 45°24' E 036°42'0 0.0
2017-Oct-20 04:28N 45°24' E 036°42'0 0.0
2017-Oct-20 03:59N 45°24' E 036°42'0 0.0
2017-Oct-20 03:27N 45°24' E 036°42'0 0.0
2017-Oct-20 02:59N 45°24' E 036°42'0 0.0
2017-Oct-20 02:29N 45°24' E 036°42'0 0.0
2017-Oct-20 01:59N 45°24' E 036°42'0 0.1
2017-Oct-20 01:30N 45°24' E 036°42'0 0.0
2017-Oct-20 00:59N 45°24' E 036°42'0 0.0
2017-Oct-20 00:27N 45°24' E 036°42'0 0.0
2017-Oct-20 00:00N 45°24' E 036°42'0 0.0
2017-Oct-19 23:28N 45°24' E 036°42'0 0.0
2017-Oct-19 22:55N 45°24' E 036°42'0 0.0
2017-Oct-19 22:23N 45°24' E 036°42'0 0.0
2017-Oct-19 22:00N 45°24' E 036°42'0 0.0
2017-Oct-19 21:29N 45°24' E 036°42'0 0.0
2017-Oct-19 20:59N 45°24' E 036°42'0 0.0
2017-Oct-19 20:26N 45°24' E 036°42'0 0.0
2017-Oct-19 19:54N 45°24' E 036°42'0 0.0
2017-Oct-19 19:28N 45°24' E 036°42'0 0.0
2017-Oct-19 18:56N 45°24' E 036°42'0 0.0
2017-Oct-19 18:23N 45°24' E 036°42'0 0.0
2017-Oct-19 17:59N 45°24' E 036°42'0 0.0
2017-Oct-19 17:29N 45°24' E 036°42'0 0.0
2017-Oct-19 16:58N 45°24' E 036°42'0 0.0
2017-Oct-19 16:30N 45°24' E 036°42'0 0.0
2017-Oct-19 15:54N 45°24' E 036°42'0 0.0
2017-Oct-19 15:27N 45°24' E 036°42'0 0.0
2017-Oct-19 14:58N 45°24' E 036°42'0 0.0
2017-Oct-19 14:28N 45°24' E 036°42'0 0.0
2017-Oct-19 13:58N 45°24' E 036°42'0 0.0
2017-Oct-19 13:29N 45°24' E 036°42'0 0.0
2017-Oct-19 12:59N 45°24' E 036°42'0 0.0
2017-Oct-19 12:28N 45°24' E 036°42'0 0.0
2017-Oct-19 11:58N 45°24' E 036°42'0 0.0
2017-Oct-19 11:29N 45°24' E 036°42'0 0.0
2017-Oct-19 10:58N 45°24' E 036°42'0 0.0
2017-Oct-19 10:25N 45°24' E 036°42'0 0.0
2017-Oct-19 09:54N 45°24' E 036°42'0 0.0
2017-Oct-19 09:27N 45°24' E 036°42'0 0.0
2017-Oct-19 08:58N 45°24' E 036°42'0 0.0
2017-Oct-19 08:26N 45°24' E 036°42'0 0.0
2017-Oct-19 07:59N 45°24' E 036°42'0 0.0
2017-Oct-19 07:29N 45°24' E 036°42'0 0.0
2017-Oct-19 07:00N 45°24' E 036°42'0 0.0
2017-Oct-19 06:29N 45°24' E 036°42'0 0.0
2017-Oct-19 05:54N 45°24' E 036°42'0 0.0
2017-Oct-19 05:23N 45°24' E 036°42'0 0.0
2017-Oct-19 04:57N 45°24' E 036°42'0 0.0
2017-Oct-19 04:28N 45°24' E 036°42'0 0.0
2017-Oct-19 03:59N 45°24' E 036°42'0 0.1
2017-Oct-19 03:29N 45°24' E 036°42'0 0.0
2017-Oct-19 02:58N 45°24' E 036°42'0 0.0
2017-Oct-19 02:25N 45°24' E 036°42'0 0.0
2017-Oct-19 02:00N 45°24' E 036°42'0 0.0
2017-Oct-19 01:29N 45°24' E 036°42'0 0.0
2017-Oct-19 01:00N 45°24' E 036°42'0 0.0
2017-Oct-19 00:30N 45°24' E 036°42'0 0.0
2017-Oct-18 23:57N 45°24' E 036°42'0 0.0
2017-Oct-18 23:30N 45°24' E 036°42'0 0.0
2017-Oct-18 23:00N 45°24' E 036°42'0 0.0
2017-Oct-18 22:28N 45°24' E 036°42'0 0.0
2017-Oct-18 22:00N 45°24' E 036°42'0 0.0
2017-Oct-18 21:30N 45°24' E 036°42'0 0.0
2017-Oct-18 20:58N 45°24' E 036°42'0 0.0
2017-Oct-18 20:28N 45°24' E 036°42'0 0.0
2017-Oct-18 19:57N 45°24' E 036°42'0 0.0
2017-Oct-18 19:29N 45°24' E 036°42'0 0.0
2017-Oct-18 18:57N 45°24' E 036°42'0 0.0
2017-Oct-18 18:28N 45°24' E 036°42'0 0.0
2017-Oct-18 17:59N 45°24' E 036°42'0 0.0
2017-Oct-18 17:30N 45°24' E 036°42'0 0.0
2017-Oct-18 17:00N 45°24' E 036°42'0 0.1
2017-Oct-18 16:29N 45°24' E 036°42'0 0.0
2017-Oct-18 15:59N 45°24' E 036°42'0 0.0
2017-Oct-18 15:29N 45°24' E 036°42'0 0.0
2017-Oct-18 14:58N 45°24' E 036°42'0 0.0
2017-Oct-18 13:58N 45°24' E 036°42'0 0.2
2017-Oct-18 13:29N 45°23' E 036°42'0 0.1
2017-Oct-18 13:00N 45°23' E 036°42'0 0.0
2017-Oct-18 12:30N 45°23' E 036°42'0 0.0
2017-Oct-18 11:56N 45°23' E 036°42'0 0.0
2017-Oct-18 11:30N 45°23' E 036°42'0 0.0
2017-Oct-18 10:57N 45°23' E 036°42'0 0.0
2017-Oct-18 10:28N 45°23' E 036°42'0 0.0
2017-Oct-18 09:52N 45°23' E 036°42'0 0.0
2017-Oct-18 09:27N 45°23' E 036°42'0 0.0
2017-Oct-18 08:58N 45°23' E 036°42'0 0.0
2017-Oct-18 08:23N 45°23' E 036°42'0 0.0
2017-Oct-18 07:53N 45°23' E 036°42'0 0.0
2017-Oct-18 07:23N 45°23' E 036°42'0 0.0
2017-Oct-18 06:58N 45°23' E 036°42'0 0.0
2017-Oct-18 06:27N 45°23' E 036°42'0 0.0
2017-Oct-18 05:58N 45°23' E 036°42'0 0.0
2017-Oct-18 05:24N 45°23' E 036°42'0 0.0
2017-Oct-18 04:58N 45°23' E 036°42'0 0.0
2017-Oct-18 04:29N 45°23' E 036°42'0 0.0
2017-Oct-18 03:51N 45°23' E 036°42'0 0.0
2017-Oct-18 03:24N 45°23' E 036°42'0 0.0
2017-Oct-18 03:00N 45°23' E 036°42'0 0.0
2017-Oct-18 02:28N 45°23' E 036°42'0 0.0
2017-Oct-18 01:55N 45°23' E 036°42'0 0.0
2017-Oct-18 01:30N 45°23' E 036°42'0 0.0
2017-Oct-18 00:59N 45°23' E 036°42'0 0.0
2017-Oct-18 00:25N 45°23' E 036°42'0 0.0
2017-Oct-17 23:53N 45°23' E 036°42'0 0.0
2017-Oct-17 23:30N 45°23' E 036°42'0 0.0
2017-Oct-17 22:57N 45°23' E 036°42'0 0.0
2017-Oct-17 22:25N 45°23' E 036°42'0 0.0
2017-Oct-17 22:00N 45°23' E 036°42'0 0.0
2017-Oct-17 21:30N 45°23' E 036°42'0 0.0
2017-Oct-17 20:58N 45°23' E 036°42'0 0.0
2017-Oct-17 20:30N 45°23' E 036°42'0 0.0
2017-Oct-17 19:55N 45°23' E 036°42'0 0.0
2017-Oct-17 19:29N 45°23' E 036°42'0 0.0
2017-Oct-17 18:59N 45°23' E 036°42'0 0.0
2017-Oct-17 18:27N 45°23' E 036°42'0 0.0
2017-Oct-17 17:56N 45°23' E 036°42'0 0.0
2017-Oct-17 17:27N 45°23' E 036°42'0 0.0
2017-Oct-17 16:57N 45°23' E 036°42'0 0.0
2017-Oct-17 16:28N 45°23' E 036°42'0 0.0
2017-Oct-17 16:00N 45°23' E 036°42'0 0.0
2017-Oct-17 15:30N 45°23' E 036°42'0 0.0
2017-Oct-17 15:00N 45°24' E 036°42'0 0.0
2017-Oct-17 14:30N 45°24' E 036°42'0 0.0
2017-Oct-17 13:58N 45°23' E 036°42'0 0.0
2017-Oct-17 13:23N 45°23' E 036°42'0 0.0
2017-Oct-17 12:59N 45°23' E 036°42'0 0.0
2017-Oct-17 12:28N 45°23' E 036°42'0 0.0
2017-Oct-17 11:58N 45°23' E 036°42'0 0.0
2017-Oct-17 11:28N 45°23' E 036°42'0 0.0
2017-Oct-17 10:57N 45°23' E 036°42'0 0.0
2017-Oct-17 10:30N 45°23' E 036°42'0 0.0
2017-Oct-17 09:56N 45°23' E 036°42'0 0.0
2017-Oct-17 09:25N 45°23' E 036°42'0 0.0
2017-Oct-17 08:54N 45°23' E 036°42'0 0.0
2017-Oct-17 08:28N 45°23' E 036°42'0 0.0
2017-Oct-17 07:58N 45°23' E 036°42'0 0.0
2017-Oct-17 07:26N 45°23' E 036°42'0 0.0
2017-Oct-17 06:59N 45°23' E 036°42'0 0.0
2017-Oct-17 06:29N 45°23' E 036°42'0 0.0
2017-Oct-17 05:57N 45°23' E 036°42'0 0.0
2017-Oct-17 05:25N 45°23' E 036°42'0 0.0
2017-Oct-17 05:00N 45°23' E 036°42'0 0.0
2017-Oct-17 04:29N 45°23' E 036°42'0 0.0
2017-Oct-17 03:57N 45°23' E 036°42'0 0.0
2017-Oct-17 03:15N 45°23' E 036°42'0 0.0
2017-Oct-17 03:00N 45°23' E 036°42'0 0.0
2017-Oct-17 02:27N 45°23' E 036°42'0 0.0
2017-Oct-17 01:56N 45°23' E 036°42'0 0.1
2017-Oct-17 01:30N 45°23' E 036°42'0 0.0
2017-Oct-17 00:57N 45°23' E 036°42'0 0.0
2017-Oct-17 00:28N 45°23' E 036°42'0 0.0
2017-Oct-17 00:00N 45°23' E 036°42'0 0.0
2017-Oct-16 23:30N 45°23' E 036°42'0 0.0
2017-Oct-16 22:59N 45°23' E 036°42'0 0.0
2017-Oct-16 22:27N 45°23' E 036°42'0 0.0
2017-Oct-16 21:55N 45°23' E 036°42'0 0.0
2017-Oct-16 21:29N 45°23' E 036°42'0 0.0
2017-Oct-16 20:59N 45°23' E 036°42'0 0.0
2017-Oct-16 20:28N 45°23' E 036°42'0 0.0
2017-Oct-16 20:00N 45°23' E 036°42'0 0.0
2017-Oct-16 19:29N 45°23' E 036°42'0 0.0
2017-Oct-16 18:58N 45°23' E 036°42'0 0.0
2017-Oct-16 18:27N 45°23' E 036°42'0 0.0
2017-Oct-16 18:00N 45°23' E 036°42'0 0.0
2017-Oct-16 17:30N 45°23' E 036°42'0 0.0
2017-Oct-16 16:59N 45°23' E 036°42'0 0.0
2017-Oct-16 16:26N 45°23' E 036°42'0 0.0
2017-Oct-16 15:59N 45°23' E 036°42'0 0.0
2017-Oct-16 15:30N 45°23' E 036°42'0 0.0
2017-Oct-16 14:58N 45°23' E 036°42'0 0.0
2017-Oct-16 13:59N 45°23' E 036°42'0 0.0
2017-Oct-16 13:30N 45°23' E 036°42'0 0.0
2017-Oct-16 12:58N 45°23' E 036°42'0 0.0
2017-Oct-16 12:27N 45°23' E 036°42'0 0.0
2017-Oct-16 11:55N 45°23' E 036°42'0 0.0
2017-Oct-16 11:27N 45°23' E 036°42'0 0.0
2017-Oct-16 10:55N 45°23' E 036°42'0 0.0
2017-Oct-16 10:29N 45°23' E 036°42'0 0.0
2017-Oct-16 10:00N 45°23' E 036°42'0 0.0
2017-Oct-16 09:30N 45°23' E 036°42'0 0.0
2017-Oct-16 09:00N 45°23' E 036°42'0 0.0
2017-Oct-16 08:28N 45°23' E 036°42'0 0.0
2017-Oct-16 07:58N 45°23' E 036°42'0 0.0
2017-Oct-16 07:29N 45°23' E 036°42'0 0.0
2017-Oct-16 06:58N 45°23' E 036°42'0 0.0
2017-Oct-16 06:29N 45°23' E 036°42'0 0.0
2017-Oct-16 05:53N 45°23' E 036°42'0 0.0
2017-Oct-16 05:29N 45°23' E 036°42'0 0.0
2017-Oct-16 04:58N 45°23' E 036°42'0 0.0
2017-Oct-16 04:28N 45°23' E 036°42'0 0.0
2017-Oct-16 03:59N 45°23' E 036°42'0 0.0
2017-Oct-16 03:29N 45°23' E 036°42'0 0.0
2017-Oct-16 02:59N 45°23' E 036°42'0 0.0
2017-Oct-16 02:27N 45°23' E 036°42'0 0.0
2017-Oct-16 01:53N 45°23' E 036°42'0 0.0
2017-Oct-16 01:30N 45°23' E 036°42'0 0.0
2017-Oct-16 01:00N 45°23' E 036°42'0 0.0
2017-Oct-16 00:28N 45°23' E 036°42'0 0.0
2017-Oct-16 00:00N 45°23' E 036°42'0 0.0
2017-Oct-15 23:28N 45°23' E 036°42'0 0.0
2017-Oct-15 22:58N 45°23' E 036°42'0 0.0
2017-Oct-15 22:26N 45°23' E 036°42'0 0.1
2017-Oct-15 22:00N 45°23' E 036°42'0 0.0
2017-Oct-15 21:29N 45°24' E 036°42'0 0.0
2017-Oct-15 20:58N 45°24' E 036°42'0 0.0
2017-Oct-15 20:25N 45°24' E 036°42'0 0.0
2017-Oct-15 19:54N 45°24' E 036°42'0 0.0
2017-Oct-15 19:28N 45°24' E 036°42'0 0.0
2017-Oct-15 18:59N 45°24' E 036°42'0 0.0
2017-Oct-15 18:25N 45°24' E 036°42'0 0.0
2017-Oct-15 17:53N 45°24' E 036°42'0 0.0
2017-Oct-15 17:27N 45°24' E 036°42'0 0.0
2017-Oct-15 16:58N 45°24' E 036°42'0 0.0
2017-Oct-15 16:20N 45°24' E 036°42'0 0.0
2017-Oct-15 15:57N 45°24' E 036°42'0 0.0
2017-Oct-15 15:28N 45°24' E 036°42'0 0.0
2017-Oct-15 14:55N 45°24' E 036°42'0 0.0
2017-Oct-15 14:00N 45°24' E 036°42'0 0.0
2017-Oct-15 13:30N 45°24' E 036°42'0 0.1
2017-Oct-15 12:58N 45°24' E 036°42'0 0.0
2017-Oct-15 12:23N 45°24' E 036°42'0 0.0
2017-Oct-15 11:54N 45°23' E 036°42'0 0.1
2017-Oct-15 11:30N 45°23' E 036°42'0 0.0
2017-Oct-15 10:58N 45°23' E 036°42'0 0.0
2017-Oct-15 10:29N 45°23' E 036°42'0 0.0
2017-Oct-15 09:59N 45°23' E 036°42'0 0.0
2017-Oct-15 09:28N 45°23' E 036°42'0 0.0
2017-Oct-15 08:56N 45°23' E 036°42'0 0.0
2017-Oct-15 08:30N 45°23' E 036°42'0 0.0
2017-Oct-15 08:00N 45°23' E 036°42'0 0.0
2017-Oct-15 07:27N 45°23' E 036°42'0 0.0
2017-Oct-15 06:57N 45°23' E 036°42'0 0.0
2017-Oct-15 06:28N 45°23' E 036°42'0 0.0
2017-Oct-15 06:00N 45°23' E 036°42'0 0.0
2017-Oct-15 05:28N 45°23' E 036°42'0 0.0
2017-Oct-15 04:58N 45°23' E 036°42'0 0.0
2017-Oct-15 04:25N 45°23' E 036°42'0 0.0
2017-Oct-15 04:00N 45°23' E 036°42'0 0.0
2017-Oct-15 03:30N 45°23' E 036°42'0 0.0
2017-Oct-15 02:55N 45°23' E 036°42'0 0.0
2017-Oct-15 02:26N 45°23' E 036°42'0 0.0
2017-Oct-15 01:53N 45°23' E 036°42'0 0.0
2017-Oct-15 01:29N 45°23' E 036°42'0 0.0
2017-Oct-15 00:58N 45°23' E 036°42'0 0.0
2017-Oct-15 00:26N 45°23' E 036°42'0 0.0
2017-Oct-14 23:54N 45°23' E 036°42'0 0.0
2017-Oct-14 23:28N 45°23' E 036°42'0 0.0
2017-Oct-14 22:55N 45°23' E 036°42'0 0.0
2017-Oct-14 22:24N 45°23' E 036°42'0 0.0
2017-Oct-14 21:59N 45°23' E 036°42'0 0.0
2017-Oct-14 21:28N 45°23' E 036°42'0 0.0
2017-Oct-14 20:58N 45°23' E 036°42'0 0.0
2017-Oct-14 20:26N 45°23' E 036°42'0 0.0
2017-Oct-14 19:59N 45°23' E 036°42'0 0.0
2017-Oct-14 19:28N 45°23' E 036°42'0 0.0
2017-Oct-14 19:00N 45°23' E 036°42'0 0.0
2017-Oct-14 18:30N 45°23' E 036°42'0 0.0
2017-Oct-14 17:56N 45°23' E 036°42'0 0.0
2017-Oct-14 17:29N 45°23' E 036°42'0 0.0
2017-Oct-14 16:56N 45°23' E 036°42'0 0.0
2017-Oct-14 16:25N 45°23' E 036°42'0 0.0
2017-Oct-14 15:53N 45°23' E 036°42'0 0.0
2017-Oct-14 15:28N 45°23' E 036°42'0 0.0
2017-Oct-14 14:59N 45°23' E 036°42'0 0.0
2017-Oct-14 14:28N 45°23' E 036°42'0 0.0
2017-Oct-14 14:00N 45°23' E 036°42'0 0.0
2017-Oct-14 13:29N 45°23' E 036°42'0 0.0
2017-Oct-14 12:56N 45°23' E 036°42'0 0.0
2017-Oct-14 12:27N 45°23' E 036°42'0 0.0
2017-Oct-14 11:57N 45°23' E 036°42'0 0.0
2017-Oct-14 11:30N 45°23' E 036°42'0 0.0
2017-Oct-14 10:55N 45°23' E 036°42'0 0.0
2017-Oct-14 10:27N 45°23' E 036°42'0 0.0
2017-Oct-14 09:53N 45°23' E 036°42'0 0.0
2017-Oct-14 09:29N 45°23' E 036°42'0 0.0
2017-Oct-14 08:58N 45°23' E 036°42'0 0.0
2017-Oct-14 08:26N 45°23' E 036°42'0 0.0
2017-Oct-14 08:00N 45°23' E 036°42'0 0.0
2017-Oct-14 07:23N 45°23' E 036°42'0 0.0
2017-Oct-14 07:00N 45°23' E 036°42'0 0.0
2017-Oct-14 06:30N 45°23' E 036°42'0 0.0
2017-Oct-14 06:00N 45°23' E 036°42'0 0.0
2017-Oct-14 05:30N 45°23' E 036°42'0 0.0
2017-Oct-14 04:55N 45°23' E 036°42'0 0.0
2017-Oct-14 04:24N 45°23' E 036°42'0 0.0
2017-Oct-14 03:54N 45°23' E 036°42'0 0.0
2017-Oct-14 03:28N 45°23' E 036°42'0 0.0
2017-Oct-14 02:58N 45°23' E 036°42'0 0.0
2017-Oct-14 02:23N 45°23' E 036°42'0 0.0
2017-Oct-14 01:58N 45°23' E 036°42'0 0.0
2017-Oct-14 01:30N 45°23' E 036°42'0 0.0
2017-Oct-14 00:58N 45°23' E 036°42'0 0.0
2017-Oct-14 00:30N 45°23' E 036°42'0 0.0
2017-Oct-13 23:59N 45°23' E 036°42'0 0.0
2017-Oct-13 23:28N 45°23' E 036°42'0 0.1
2017-Oct-13 22:57N 45°23' E 036°42'0 0.0
2017-Oct-13 22:24N 45°23' E 036°42'0 0.2
2017-Oct-13 21:53N 45°24' E 036°42'0 0.0
2017-Oct-13 21:28N 45°24' E 036°42'0 0.0
2017-Oct-13 20:59N 45°24' E 036°42'0 0.0
2017-Oct-13 20:29N 45°24' E 036°42'0 0.0
2017-Oct-13 19:54N 45°24' E 036°42'0 0.0
2017-Oct-13 19:28N 45°24' E 036°42'0 0.0
2017-Oct-13 19:00N 45°24' E 036°42'0 0.0
2017-Oct-13 18:30N 45°24' E 036°42'0 0.0
2017-Oct-13 17:59N 45°24' E 036°42'0 0.0
2017-Oct-13 17:28N 45°24' E 036°42'0 0.0
2017-Oct-13 16:56N 45°24' E 036°42'0 0.0
2017-Oct-13 16:29N 45°24' E 036°42'0 0.0
2017-Oct-13 15:54N 45°24' E 036°42'0 0.0
2017-Oct-13 15:28N 45°24' E 036°42'0 0.0
2017-Oct-13 14:56N 45°24' E 036°42'0 0.0
2017-Oct-13 14:23N 45°24' E 036°42'0 0.0
2017-Oct-13 13:57N 45°24' E 036°42'0 0.0
2017-Oct-13 13:29N 45°24' E 036°42'0 0.0
2017-Oct-13 12:59N 45°24' E 036°42'0 0.0
2017-Oct-13 12:25N 45°24' E 036°42'0 0.0
2017-Oct-13 11:54N 45°24' E 036°42'0 0.0
2017-Oct-13 11:28N 45°24' E 036°42'0 0.0
2017-Oct-13 10:59N 45°24' E 036°42'0 0.0
2017-Oct-13 10:29N 45°24' E 036°42'0 0.0
2017-Oct-13 09:54N 45°24' E 036°42'0 0.0
2017-Oct-13 09:27N 45°24' E 036°42'0 0.0
2017-Oct-13 08:56N 45°24' E 036°42'0 0.0
2017-Oct-13 08:26N 45°24' E 036°42'0 0.0
2017-Oct-13 07:59N 45°24' E 036°42'0 0.1
2017-Oct-13 07:29N 45°24' E 036°42'0 0.0
2017-Oct-13 07:00N 45°24' E 036°42'0 0.0
2017-Oct-13 06:25N 45°24' E 036°42'0 0.0
2017-Oct-13 05:53N 45°24' E 036°42'0 0.0
2017-Oct-13 05:29N 45°24' E 036°42'0 0.0
2017-Oct-13 05:00N 45°24' E 036°42'0 0.0
2017-Oct-13 04:30N 45°24' E 036°42'0 0.0
2017-Oct-13 04:00N 45°24' E 036°42'0 0.0
2017-Oct-13 03:24N 45°24' E 036°42'0 0.0
2017-Oct-13 02:58N 45°24' E 036°42'0 0.0
2017-Oct-13 02:29N 45°24' E 036°42'0 0.0
2017-Oct-13 01:54N 45°24' E 036°42'0 0.0
2017-Oct-13 01:28N 45°24' E 036°42'0 0.0
2017-Oct-13 00:58N 45°24' E 036°42'0 0.0
2017-Oct-13 00:24N 45°24' E 036°42'0 0.0
2017-Oct-13 00:00N 45°24' E 036°42'0 0.0
2017-Oct-12 23:28N 45°24' E 036°42'0 0.0
2017-Oct-12 22:58N 45°24' E 036°42'0 0.0
2017-Oct-12 22:25N 45°24' E 036°42'0 0.0
2017-Oct-12 21:53N 45°24' E 036°42'0 0.0
2017-Oct-12 21:28N 45°24' E 036°42'0 0.0
2017-Oct-12 20:59N 45°24' E 036°42'0 0.0
2017-Oct-12 20:26N 45°24' E 036°42'0 0.0
2017-Oct-12 19:59N 45°24' E 036°42'0 0.0
2017-Oct-12 19:27N 45°24' E 036°42'0 0.0
2017-Oct-12 19:00N 45°24' E 036°42'0 0.0
2017-Oct-12 18:27N 45°24' E 036°42'0 0.0
2017-Oct-12 17:53N 45°24' E 036°42'0 0.0
2017-Oct-12 17:30N 45°24' E 036°42'0 0.0
2017-Oct-12 16:57N 45°24' E 036°42'0 0.0
2017-Oct-12 16:26N 45°24' E 036°42'0 0.0
2017-Oct-12 16:00N 45°24' E 036°42'0 0.0
2017-Oct-12 15:30N 45°24' E 036°42'0 0.0
2017-Oct-12 14:56N 45°24' E 036°42'0 0.0
2017-Oct-12 14:30N 45°24' E 036°42'0 0.0
2017-Oct-12 13:59N 45°24' E 036°42'0 0.0
2017-Oct-12 13:27N 45°24' E 036°42'0 0.0
2017-Oct-12 13:00N 45°24' E 036°42'0 0.0
2017-Oct-12 12:29N 45°24' E 036°42'0 0.0
2017-Oct-12 11:54N 45°24' E 036°42'0 0.1
2017-Oct-12 11:30N 45°24' E 036°42'0 0.0
2017-Oct-12 10:56N 45°24' E 036°42'0 0.0
2017-Oct-12 10:26N 45°24' E 036°42'0 0.0
2017-Oct-12 10:00N 45°24' E 036°42'0 0.0
2017-Oct-12 09:30N 45°24' E 036°42'0 0.0
2017-Oct-12 08:58N 45°24' E 036°42'0 0.0
2017-Oct-12 08:30N 45°24' E 036°42'0 0.0
2017-Oct-12 08:00N 45°24' E 036°42'0 0.0
2017-Oct-12 07:29N 45°24' E 036°42'0 0.0
2017-Oct-12 06:59N 45°24' E 036°42'0 0.0
2017-Oct-12 06:29N 45°24' E 036°42'0 0.0
2017-Oct-12 05:54N 45°24' E 036°42'0 0.0
2017-Oct-12 05:28N 45°24' E 036°42'0 0.0
2017-Oct-12 04:58N 45°24' E 036°42'0 0.0
2017-Oct-12 04:28N 45°24' E 036°42'0 0.0
2017-Oct-12 03:53N 45°23' E 036°42'0 0.0
2017-Oct-12 03:30N 45°23' E 036°42'0 0.0
2017-Oct-12 02:50N 45°23' E 036°42'0 0.0
2017-Oct-12 02:30N 45°23' E 036°42'0 0.0
2017-Oct-12 01:58N 45°23' E 036°42'0 0.0
2017-Oct-12 01:30N 45°23' E 036°42'0 0.0
2017-Oct-12 00:58N 45°23' E 036°42'0 0.0
2017-Oct-12 00:26N 45°23' E 036°42'0 0.0
2017-Oct-11 23:59N 45°24' E 036°42'0 0.0
2017-Oct-11 23:27N 45°23' E 036°42'0 0.0
2017-Oct-11 22:45N 45°23' E 036°42'  

Dump ship's entire track history